Time;durP1;ratioP1;P1;durP2;ratioP2;P2;SDS_P1;SDS_P2;PMS_P1;PMS_P2;Temp;Humidity;BMP_temperature;BMP_pressure;BME280_temperature;BME280_humidity;BME280_pressure;Samples;Min_cycle;Max_cycle;Signal;HPM_P1;HPM_P2
2023/11/06 00:01:21;;;;;;;;;1.00;0.00;;;;;;;;5047523;28;9270;-84
2023/11/06 00:03:48;;;;;;;;;2.00;0.33;;;;;;;;5054349;28;9448;-82
2023/11/06 00:06:16;;;;;;;;;0.00;0.00;;;;;;;;5049157;28;9369;-84
2023/11/06 00:08:44;;;;;;;;;0.00;0.00;;;;;;;;5053678;28;9298;-84
2023/11/06 00:11:14;;;;;;;;;1.25;0.00;;;;;;;;5042765;28;9464;-85
2023/11/06 00:13:47;;;;;;;;;2.75;1.00;;;;;;;;5053567;28;9448;-85
2023/11/06 00:16:16;;;;;;;;;2.00;0.00;;;;;;;;5052209;28;9441;-85
2023/11/06 00:18:46;;;;;;;;;1.00;1.00;;;;;;;;5050762;28;9610;-84
2023/11/06 00:21:13;;;;;;;;;0.75;0.75;;;;;;;;5050943;28;9315;-84
2023/11/06 00:23:44;;;;;;;;;2.00;0.00;;;;;;;;5050765;28;9452;-83
2023/11/06 00:26:13;;;;;;;;;1.00;0.25;;;;;;;;5051156;28;9402;-83
2023/11/06 00:28:48;;;;;;;;;2.00;0.00;;;;;;;;5056739;28;9525;-83
2023/11/06 00:31:16;;;;;;;;;1.00;1.00;;;;;;;;5053272;28;9471;-83
2023/11/06 00:33:44;;;;;;;;;0.25;0.25;;;;;;;;5068862;28;9584;-83
2023/11/06 00:36:18;;;;;;;;;1.50;0.00;;;;;;;;5076033;28;9473;-85
2023/11/06 00:38:46;;;;;;;;;0.00;0.00;;;;;;;;5058772;28;9497;-84
2023/11/06 00:41:13;;;;;;;;;1.50;0.25;;;;;;;;5052230;28;9591;-83
2023/11/06 00:43:43;;;;;;;;;1.50;0.00;;;;;;;;5050859;28;9584;-84
2023/11/06 00:46:14;;;;;;;;;0.50;0.50;;;;;;;;5050325;28;9468;-84
2023/11/06 00:48:53;;;;;;;;;1.50;1.00;;;;;;;;5050120;28;9671;-83
2023/11/06 00:51:21;;;;;;;;;3.00;1.00;;;;;;;;5032237;28;9643;-83
2023/11/06 00:53:48;;;;;;;;;2.75;1.00;;;;;;;;5050055;28;9551;-83
2023/11/06 00:56:15;;;;;;;;;1.00;1.00;;;;;;;;5049771;28;9528;-83
2023/11/06 00:58:45;;;;;;;;;1.50;1.00;;;;;;;;5049681;28;9454;-84
2023/11/06 01:01:13;;;;;;;;;1.00;1.00;;;;;;;;5037052;28;10209;-84
2023/11/06 01:03:41;;;;;;;;;3.00;1.75;;;;;;;;5042794;28;9629;-84
2023/11/06 01:06:12;;;;;;;;;0.25;0.25;;;;;;;;5049909;28;9456;-83
2023/11/06 01:08:39;;;;;;;;;0.00;0.00;;;;;;;;5049668;28;9462;-84
2023/11/06 01:11:09;;;;;;;;;2.00;2.00;;;;;;;;5049916;28;9445;-83
2023/11/06 01:13:36;;;;;;;;;0.00;0.00;;;;;;;;5042479;28;9580;-84
2023/11/06 01:16:04;;;;;;;;;0.50;0.50;;;;;;;;5039390;28;9460;-85
2023/11/06 01:18:30;;;;;;;;;2.00;1.00;;;;;;;;5049447;28;9490;-84
2023/11/06 01:20:58;;;;;;;;;3.00;1.00;;;;;;;;5049878;28;9518;-85
2023/11/06 01:23:26;;;;;;;;;0.25;0.25;;;;;;;;5049610;28;9458;-84
2023/11/06 01:25:54;;;;;;;;;2.00;0.25;;;;;;;;5049405;28;9480;-84
2023/11/06 01:28:22;;;;;;;;;5.50;2.00;;;;;;;;5049408;28;9412;-83
2023/11/06 01:30:50;;;;;;;;;1.25;1.25;;;;;;;;5045377;28;9692;-81
2023/11/06 01:33:18;;;;;;;;;4.25;2.00;;;;;;;;5049706;28;9454;-81
2023/11/06 01:35:45;;;;;;;;;2.25;1.00;;;;;;;;5039323;28;9690;-81
2023/11/06 01:38:15;;;;;;;;;1.00;1.00;;;;;;;;5051026;28;9544;-82
2023/11/06 01:40:46;;;;;;;;;1.50;0.50;;;;;;;;5054933;28;9532;-84
2023/11/06 01:43:23;;;;;;;;;1.25;1.25;;;;;;;;5055129;28;9378;-83
2023/11/06 01:45:51;;;;;;;;;0.00;0.00;;;;;;;;5043172;28;9620;-83
2023/11/06 01:48:19;;;;;;;;;1.00;1.00;;;;;;;;5054196;28;9469;-83
2023/11/06 01:50:47;;;;;;;;;4.00;2.25;;;;;;;;5047333;28;9617;-83
2023/11/06 01:53:16;;;;;;;;;1.00;1.00;;;;;;;;5060043;28;9895;-84
2023/11/06 01:55:45;;;;;;;;;2.00;0.25;;;;;;;;5057442;28;9641;-84
2023/11/06 01:58:15;;;;;;;;;0.00;0.00;;;;;;;;5046601;28;9699;-84
2023/11/06 02:00:45;;;;;;;;;2.00;2.00;;;;;;;;5059017;28;9540;-85
2023/11/06 02:03:13;;;;;;;;;0.75;0.75;;;;;;;;5058950;28;9615;-83
2023/11/06 02:05:40;;;;;;;;;1.00;1.00;;;;;;;;5053217;28;9557;-84
2023/11/06 02:08:08;;;;;;;;;1.00;1.00;;;;;;;;5046984;28;9739;-85
2023/11/06 02:10:38;;;;;;;;;2.00;1.00;;;;;;;;5055354;28;9715;-85
2023/11/06 02:13:06;;;;;;;;;2.75;1.00;;;;;;;;5055695;28;9593;-84
2023/11/06 02:15:33;;;;;;;;;2.50;0.00;;;;;;;;5054664;28;9684;-84
2023/11/06 02:18:01;;;;;;;;;0.75;0.75;;;;;;;;5055366;28;9681;-84
2023/11/06 02:20:29;;;;;;;;;1.00;1.00;;;;;;;;5041967;28;10576;-83
2023/11/06 02:23:01;;;;;;;;;1.25;1.00;;;;;;;;5055248;28;9626;-83
2023/11/06 02:25:29;;;;;;;;;2.00;0.50;;;;;;;;5043077;28;9692;-84
2023/11/06 02:27:56;;;;;;;;;1.50;0.00;;;;;;;;5055523;28;9655;-83
2023/11/06 02:30:23;;;;;;;;;1.00;0.00;;;;;;;;5047849;28;9536;-83
2023/11/06 02:32:51;;;;;;;;;1.25;1.00;;;;;;;;5049892;28;10403;-83
2023/11/06 02:35:18;;;;;;;;;4.75;1.75;;;;;;;;5042236;28;9681;-85
2023/11/06 02:37:46;;;;;;;;;2.25;1.00;;;;;;;;5054995;28;9797;-83
2023/11/06 02:40:14;;;;;;;;;1.00;1.00;;;;;;;;5055652;28;9672;-85
2023/11/06 02:42:44;;;;;;;;;3.25;1.00;;;;;;;;5055618;28;10001;-85
2023/11/06 02:45:13;;;;;;;;;2.50;1.25;;;;;;;;5055439;28;9516;-84
2023/11/06 02:47:43;;;;;;;;;5.50;1.50;;;;;;;;5055345;28;9875;-84
2023/11/06 02:50:12;;;;;;;;;1.00;1.00;;;;;;;;5055436;28;9871;-84
2023/11/06 02:52:42;;;;;;;;;0.75;0.75;;;;;;;;5055532;28;10481;-86
2023/11/06 02:55:14;;;;;;;;;2.00;0.25;;;;;;;;5055612;28;9726;-85
2023/11/06 02:57:46;;;;;;;;;1.00;1.00;;;;;;;;5054960;28;10437;-85
2023/11/06 03:00:14;;;;;;;;;2.50;1.25;;;;;;;;5055736;28;9876;-84
2023/11/06 03:02:42;;;;;;;;;1.00;1.00;;;;;;;;5054917;28;9684;-83
2023/11/06 03:05:11;;;;;;;;;3.00;1.50;;;;;;;;5053120;28;9793;-83
2023/11/06 03:07:44;;;;;;;;;0.75;0.75;;;;;;;;5038865;28;9766;-83
2023/11/06 03:10:12;;;;;;;;;1.50;1.00;;;;;;;;5038960;28;9709;-83
2023/11/06 03:12:42;;;;;;;;;1.00;1.00;;;;;;;;5040193;28;9694;-84
2023/11/06 03:15:11;;;;;;;;;2.50;2.00;;;;;;;;5052039;28;9718;-84
2023/11/06 03:17:39;;;;;;;;;0.50;0.50;;;;;;;;5045156;28;9766;-84
2023/11/06 03:20:10;;;;;;;;;2.25;2.00;;;;;;;;5046683;28;9741;-84
2023/11/06 03:22:38;;;;;;;;;3.00;1.00;;;;;;;;5042603;28;9773;-84
2023/11/06 03:25:08;;;;;;;;;0.75;0.75;;;;;;;;5056361;28;9773;-84
2023/11/06 03:27:35;;;;;;;;;2.00;2.00;;;;;;;;5071100;28;9777;-84
2023/11/06 03:30:05;;;;;;;;;0.75;0.75;;;;;;;;5074123;28;9843;-84
2023/11/06 03:32:32;;;;;;;;;1.00;1.00;;;;;;;;5074684;28;9928;-84
2023/11/06 03:35:00;;;;;;;;;1.00;1.00;;;;;;;;5058923;28;9878;-84
2023/11/06 03:37:29;;;;;;;;;0.50;0.50;;;;;;;;5068898;28;9835;-84
2023/11/06 03:39:57;;;;;;;;;0.00;0.00;;;;;;;;5061546;28;9848;-83
2023/11/06 03:42:25;;;;;;;;;1.25;1.25;;;;;;;;5068742;28;9721;-83
2023/11/06 03:44:52;;;;;;;;;0.50;0.50;;;;;;;;5052514;28;9765;-82
2023/11/06 03:47:21;;;;;;;;;3.00;1.00;;;;;;;;5054723;28;9772;-84
2023/11/06 03:49:48;;;;;;;;;2.00;0.50;;;;;;;;5055441;28;9934;-81
2023/11/06 03:52:14;;;;;;;;;2.50;1.00;;;;;;;;5052077;28;9865;-83
2023/11/06 03:54:44;;;;;;;;;3.00;1.25;;;;;;;;5046382;28;9925;-85
2023/11/06 03:57:15;;;;;;;;;0.00;0.00;;;;;;;;5044941;28;9906;-84
2023/11/06 03:59:42;;;;;;;;;2.00;0.00;;;;;;;;5049708;28;9750;-83
2023/11/06 04:02:09;;;;;;;;;3.00;1.00;;;;;;;;5075171;28;9953;-84
2023/11/06 04:04:40;;;;;;;;;0.25;0.25;;;;;;;;5060220;28;9981;-83
2023/11/06 04:07:08;;;;;;;;;1.75;1.75;;;;;;;;5051862;28;9773;-84
2023/11/06 04:09:35;;;;;;;;;1.00;1.00;;;;;;;;5049478;28;10807;-83
2023/11/06 04:12:03;;;;;;;;;2.00;0.50;;;;;;;;5051099;28;9967;-83
2023/11/06 04:14:30;;;;;;;;;1.75;1.75;;;;;;;;5051049;28;9895;-83
2023/11/06 04:16:58;;;;;;;;;1.25;1.00;;;;;;;;5050314;28;9850;-84
2023/11/06 04:19:25;;;;;;;;;3.00;3.00;;;;;;;;5050717;28;10051;-83
2023/11/06 04:21:54;;;;;;;;;1.00;1.00;;;;;;;;5049169;28;10807;-83
2023/11/06 04:24:21;;;;;;;;;1.00;1.00;;;;;;;;5050231;28;10080;-84
2023/11/06 04:26:48;;;;;;;;;1.25;1.00;;;;;;;;5050670;28;10015;-84
2023/11/06 04:29:16;;;;;;;;;0.50;0.25;;;;;;;;5050760;28;9940;-83
2023/11/06 04:31:47;;;;;;;;;1.00;1.00;;;;;;;;5050507;28;9919;-84
2023/11/06 04:34:15;;;;;;;;;2.00;2.00;;;;;;;;5050332;28;10611;-83
2023/11/06 04:36:44;;;;;;;;;2.75;1.75;;;;;;;;5037303;28;9971;-83
2023/11/06 04:39:13;;;;;;;;;2.50;1.00;;;;;;;;5050072;28;10105;-82
2023/11/06 04:41:42;;;;;;;;;4.25;1.75;;;;;;;;5050035;28;10019;-83
2023/11/06 04:44:09;;;;;;;;;1.00;1.00;;;;;;;;5049520;28;10166;-85
2023/11/06 04:46:36;;;;;;;;;2.50;1.00;;;;;;;;5049894;28;10105;-83
2023/11/06 04:49:04;;;;;;;;;4.00;1.00;;;;;;;;5048748;28;10002;-84
2023/11/06 04:51:31;;;;;;;;;1.00;0.50;;;;;;;;5049933;28;10181;-84
2023/11/06 04:54:00;;;;;;;;;1.00;1.00;;;;;;;;5049638;28;10064;-83
2023/11/06 04:56:29;;;;;;;;;1.25;1.25;;;;;;;;5037164;28;10134;-85
2023/11/06 04:58:57;;;;;;;;;3.00;0.00;;;;;;;;5043860;28;10239;-86
2023/11/06 05:01:24;;;;;;;;;1.00;1.00;;;;;;;;5043124;28;10183;-85
2023/11/06 05:03:52;;;;;;;;;1.75;1.00;;;;;;;;5045304;28;10239;-87
2023/11/06 05:06:19;;;;;;;;;7.25;2.25;;;;;;;;5050479;28;10108;-85
2023/11/06 05:08:46;;;;;;;;;3.25;1.00;;;;;;;;5050507;28;10232;-83
2023/11/06 05:11:20;;;;;;;;;1.75;1.75;;;;;;;;5052459;28;10233;-82
2023/11/06 05:13:58;;;;;;;;;0.00;0.00;;;;;;;;5043768;28;10145;-84
2023/11/06 05:16:48;;;;;;;;;3.25;1.75;;;;;;;;5047800;28;10121;-82
2023/11/06 05:19:49;;;;;;;;;7.50;1.00;;;;;;;;5047949;28;10168;-83
2023/11/06 05:22:16;;;;;;;;;9.00;3.25;;;;;;;;5055167;28;10264;-85
2023/11/06 05:24:44;;;;;;;;;3.00;1.00;;;;;;;;5044058;28;11073;-87
2023/11/06 05:27:12;;;;;;;;;2.00;2.00;;;;;;;;5051556;28;10196;-87
2023/11/06 05:29:44;;;;;;;;;2.00;2.00;;;;;;;;5056167;28;10188;-87
2023/11/06 05:32:12;;;;;;;;;5.75;2.25;;;;;;;;5027805;28;10118;-86
2023/11/06 05:34:39;;;;;;;;;4.50;2.00;;;;;;;;5049704;28;10198;-85
2023/11/06 05:37:10;;;;;;;;;2.00;2.00;;;;;;;;5050627;28;10080;-86
2023/11/06 05:39:42;;;;;;;;;3.00;2.25;;;;;;;;5050225;28;10179;-83
2023/11/06 05:42:11;;;;;;;;;3.00;2.25;;;;;;;;5048119;28;10143;-83
2023/11/06 05:44:42;;;;;;;;;2.75;2.75;;;;;;;;5049703;28;10087;-81
2023/11/06 05:47:11;;;;;;;;;3.75;2.25;;;;;;;;5048444;28;10214;-83
2023/11/06 05:49:42;;;;;;;;;5.00;4.00;;;;;;;;5047969;28;10230;-79
2023/11/06 05:52:09;;;;;;;;;4.50;4.00;;;;;;;;5041291;28;10097;-80
2023/11/06 05:57:22;;;;;;;;;3.50;3.50;;;;;;;;5040948;28;10320;-81
2023/11/06 05:59:51;;;;;;;;;3.75;3.75;;;;;;;;5048765;28;10147;-84
2023/11/06 06:02:18;;;;;;;;;4.00;4.00;;;;;;;;5048863;28;10221;-76
2023/11/06 06:04:47;;;;;;;;;8.75;5.00;;;;;;;;5047487;28;10021;-76
2023/11/06 06:07:15;;;;;;;;;4.25;3.00;;;;;;;;5047913;28;10335;-75
2023/11/06 06:09:42;;;;;;;;;5.00;3.75;;;;;;;;5048382;28;10042;-74
2023/11/06 06:12:11;;;;;;;;;6.00;4.25;;;;;;;;5047831;28;9989;-76
2023/11/06 06:14:40;;;;;;;;;6.00;3.00;;;;;;;;5046883;28;9998;-74
2023/11/06 06:17:08;;;;;;;;;5.50;4.00;;;;;;;;5047192;28;10114;-76
2023/11/06 06:19:36;;;;;;;;;3.75;3.75;;;;;;;;5048169;28;10100;-79
2023/11/06 06:22:03;;;;;;;;;6.00;4.00;;;;;;;;5049979;28;10114;-80
2023/11/06 06:24:30;;;;;;;;;1.00;1.00;;;;;;;;5069197;28;10021;-76
2023/11/06 06:26:57;;;;;;;;;3.75;3.75;;;;;;;;5069428;28;9825;-73
2023/11/06 06:29:24;;;;;;;;;5.00;5.00;;;;;;;;5063021;28;9960;-74
2023/11/06 06:31:53;;;;;;;;;6.00;2.00;;;;;;;;5051083;28;10936;-74
2023/11/06 06:34:23;;;;;;;;;7.50;5.50;;;;;;;;5055154;28;9889;-73
2023/11/06 06:36:50;;;;;;;;;5.00;5.00;;;;;;;;5048936;28;10009;-76
2023/11/06 06:39:18;;;;;;;;;3.25;3.25;;;;;;;;5048454;28;9927;-74
2023/11/06 06:41:47;;;;;;;;;4.00;4.00;;;;;;;;5048480;28;10026;-77
2023/11/06 06:44:22;;;;;;;;;6.00;4.25;;;;;;;;5052294;28;10141;-73
2023/11/06 06:46:49;;;;;;;;;6.00;4.00;;;;;;;;5051096;28;9837;-77
2023/11/06 06:49:16;;;;;;;;;5.75;3.00;;;;;;;;5051341;28;9951;-75
2023/11/06 06:51:45;;;;;;;;;2.50;0.25;;;;;;;;5051638;28;9872;-81
2023/11/06 06:54:13;;;;;;;;;6.00;3.00;;;;;;;;5051652;28;10572;-82
2023/11/06 06:56:40;;;;;;;;;4.50;4.50;;;;;;;;5052031;28;9931;-83
2023/11/06 06:59:06;;;;;;;;;3.00;3.00;;;;;;;;5051096;28;9856;-77
2023/11/06 07:01:33;;;;;;;;;3.00;3.00;;;;;;;;5051644;28;9846;-82
2023/11/06 07:04:01;;;;;;;;;4.25;4.25;;;;;;;;5053086;28;9791;-78
2023/11/06 07:06:28;;;;;;;;;4.25;4.25;;;;;;;;5053094;28;9910;-80
2023/11/06 07:08:57;;;;;;;;;5.00;3.00;;;;;;;;5053075;28;9743;-76
2023/11/06 07:11:24;;;;;;;;;1.50;1.50;;;;;;;;5053926;28;9827;-72
2023/11/06 07:13:51;;;;;;;;;4.75;3.00;;;;;;;;5053481;28;9748;-76
2023/11/06 07:16:20;;;;;;;;;5.00;3.00;;;;;;;;5052835;28;10675;-75
2023/11/06 07:18:47;;;;;;;;;4.50;3.25;;;;;;;;5051647;28;9874;-77
2023/11/06 07:21:14;;;;;;;;;2.00;2.00;;;;;;;;5051493;28;9891;-74
2023/11/06 07:23:44;;;;;;;;;2.00;2.00;;;;;;;;5051392;28;9807;-79
2023/11/06 07:26:18;;;;;;;;;4.00;4.00;;;;;;;;5051433;28;9860;-80
2023/11/06 07:28:49;;;;;;;;;4.00;4.00;;;;;;;;5051218;28;9842;-76
2023/11/06 07:31:21;;;;;;;;;2.75;2.75;;;;;;;;5050421;28;9742;-73
2023/11/06 07:33:50;;;;;;;;;3.00;3.00;;;;;;;;5043395;28;9763;-75
2023/11/06 07:36:17;;;;;;;;;2.50;2.00;;;;;;;;5049851;28;9631;-75
2023/11/06 07:38:45;;;;;;;;;2.00;2.00;;;;;;;;5050311;28;9844;-75
2023/11/06 07:41:14;;;;;;;;;2.50;2.50;;;;;;;;5050396;28;9760;-74
2023/11/06 07:43:51;;;;;;;;;3.25;2.75;;;;;;;;5049931;28;9709;-80
2023/11/06 07:46:19;;;;;;;;;2.00;2.00;;;;;;;;5049835;28;9851;-75
2023/11/06 07:48:49;;;;;;;;;1.00;1.00;;;;;;;;5050000;28;10427;-76
2023/11/06 07:51:17;;;;;;;;;5.25;2.00;;;;;;;;5049551;28;9685;-81
2023/11/06 07:53:47;;;;;;;;;0.75;0.75;;;;;;;;5050542;28;10455;-80
2023/11/06 07:56:18;;;;;;;;;3.25;1.75;;;;;;;;5050439;28;9772;-80
2023/11/06 07:58:48;;;;;;;;;2.00;2.00;;;;;;;;5050155;28;9701;-77
2023/11/06 08:01:17;;;;;;;;;1.00;1.00;;;;;;;;5050133;28;9806;-80
2023/11/06 08:03:54;;;;;;;;;1.00;1.00;;;;;;;;5054101;28;9693;-79
2023/11/06 08:06:22;;;;;;;;;3.00;1.50;;;;;;;;5043251;28;9761;-85
2023/11/06 08:08:50;;;;;;;;;3.50;1.25;;;;;;;;5048375;28;9697;-80
2023/11/06 08:11:20;;;;;;;;;3.25;1.00;;;;;;;;5049884;28;9784;-81
2023/11/06 08:13:48;;;;;;;;;3.00;3.00;;;;;;;;5049341;28;9676;-80
2023/11/06 08:16:18;;;;;;;;;4.00;2.50;;;;;;;;5050062;28;9630;-81
2023/11/06 08:18:46;;;;;;;;;1.00;1.00;;;;;;;;5049940;28;9813;-81
2023/11/06 08:21:13;;;;;;;;;2.00;2.00;;;;;;;;5049777;28;9583;-82
2023/11/06 08:23:44;;;;;;;;;2.00;2.00;;;;;;;;5051785;28;9714;-84
2023/11/06 08:26:11;;;;;;;;;2.00;1.00;;;;;;;;5050169;28;9701;-81
2023/11/06 08:28:42;;;;;;;;;2.00;2.00;;;;;;;;5049642;28;9605;-80
2023/11/06 08:31:16;;;;;;;;;4.75;1.00;;;;;;;;5050161;28;9394;-77
2023/11/06 08:33:47;;;;;;;;;0.00;0.00;;;;;;;;5040517;28;9491;-75
2023/11/06 08:36:16;;;;;;;;;5.00;1.00;;;;;;;;5050642;28;9237;-76
2023/11/06 08:38:43;;;;;;;;;1.00;1.00;;;;;;;;5050665;28;9764;-85
2023/11/06 08:41:10;;;;;;;;;4.00;1.00;;;;;;;;5049629;28;9337;-79
2023/11/06 08:43:39;;;;;;;;;2.00;0.00;;;;;;;;5050489;28;9440;-82
2023/11/06 08:46:07;;;;;;;;;1.00;1.00;;;;;;;;5050926;28;9336;-78
2023/11/06 08:48:34;;;;;;;;;1.00;1.00;;;;;;;;5053052;28;9187;-83
2023/11/06 08:51:02;;;;;;;;;1.00;1.00;;;;;;;;5052081;28;9325;-75
2023/11/06 08:53:29;;;;;;;;;1.00;1.00;;;;;;;;5045823;28;9366;-81
2023/11/06 08:55:56;;;;;;;;;1.33;1.00;;;;;;;;5054030;28;9244;-83
2023/11/06 08:58:25;;;;;;;;;0.67;0.67;;;;;;;;5053891;28;9195;-80
2023/11/06 09:00:53;;;;;;;;;0.00;0.00;;;;;;;;5054486;28;9246;-81
2023/11/06 09:03:20;;;;;;;;;3.33;1.00;;;;;;;;5054931;28;9083;-78
2023/11/06 09:05:50;;;;;;;;;0.00;0.00;;;;;;;;5045506;28;9962;-79
2023/11/06 09:08:17;;;;;;;;;3.00;1.00;;;;;;;;5050460;28;9196;-80
2023/11/06 09:10:48;;;;;;;;;2.00;2.00;;;;;;;;5051718;28;9245;-78
2023/11/06 09:13:16;;;;;;;;;0.00;0.00;;;;;;;;5051434;28;9005;-82
2023/11/06 09:15:43;;;;;;;;;1.00;1.00;;;;;;;;5050732;28;8946;-79
2023/11/06 09:18:12;;;;;;;;;0.67;0.67;;;;;;;;5061475;28;8943;-81
2023/11/06 09:20:39;;;;;;;;;0.25;0.25;;;;;;;;5062154;28;8927;-78
2023/11/06 09:23:06;;;;;;;;;1.00;1.00;;;;;;;;5070691;28;9228;-80
2023/11/06 09:25:34;;;;;;;;;0.25;0.25;;;;;;;;5052000;28;8928;-83
2023/11/06 09:28:01;;;;;;;;;2.00;0.25;;;;;;;;5049006;28;8852;-78
2023/11/06 09:30:29;;;;;;;;;1.25;0.00;;;;;;;;5048766;28;8833;-79
2023/11/06 09:32:56;;;;;;;;;0.25;0.25;;;;;;;;5048176;28;8954;-80
2023/11/06 09:35:25;;;;;;;;;0.25;0.25;;;;;;;;5049051;28;8938;-80
2023/11/06 09:37:52;;;;;;;;;1.00;1.00;;;;;;;;5048202;28;8906;-81
2023/11/06 09:40:24;;;;;;;;;1.00;1.00;;;;;;;;5048449;28;8866;-76
2023/11/06 09:42:52;;;;;;;;;0.00;0.00;;;;;;;;5048139;28;8913;-82
2023/11/06 09:45:19;;;;;;;;;0.25;0.25;;;;;;;;5048693;28;9593;-80
2023/11/06 09:47:50;;;;;;;;;0.25;0.25;;;;;;;;5047982;28;9712;-79
2023/11/06 09:50:19;;;;;;;;;0.00;0.00;;;;;;;;5048846;28;8946;-81
2023/11/06 09:52:50;;;;;;;;;0.00;0.00;;;;;;;;5047873;28;8841;-79
2023/11/06 09:55:21;;;;;;;;;0.50;0.50;;;;;;;;5048634;28;8866;-80
2023/11/06 09:57:49;;;;;;;;;1.25;0.00;;;;;;;;5047812;28;8848;-82
2023/11/06 10:00:17;;;;;;;;;0.00;0.00;;;;;;;;5048362;28;8832;-78
2023/11/06 10:02:48;;;;;;;;;0.00;0.00;;;;;;;;5048670;28;8864;-81
2023/11/06 10:05:20;;;;;;;;;0.75;0.75;;;;;;;;5048894;28;8974;-81
2023/11/06 10:07:52;;;;;;;;;0.50;0.50;;;;;;;;5048126;28;8929;-81
2023/11/06 10:10:20;;;;;;;;;1.00;1.00;;;;;;;;5048008;28;8867;-79
2023/11/06 10:13:01;;;;;;;;;0.00;0.00;;;;;;;;5036237;28;8856;-79
2023/11/06 10:15:28;;;;;;;;;0.75;0.75;;;;;;;;5050222;28;8852;-81
2023/11/06 10:18:00;;;;;;;;;1.25;0.00;;;;;;;;5051790;28;8883;-79
2023/11/06 10:20:29;;;;;;;;;1.00;1.00;;;;;;;;5052191;28;9599;-79
2023/11/06 10:22:58;;;;;;;;;0.00;0.00;;;;;;;;5052289;28;8963;-80
2023/11/06 10:25:27;;;;;;;;;0.00;0.00;;;;;;;;5051917;28;8832;-76
2023/11/06 10:27:54;;;;;;;;;0.75;0.00;;;;;;;;5051120;28;8871;-78
2023/11/06 10:30:22;;;;;;;;;0.00;0.00;;;;;;;;5021929;28;9131;-76
2023/11/06 10:32:49;;;;;;;;;0.00;0.00;;;;;;;;5052427;28;8860;-83
2023/11/06 10:35:18;;;;;;;;;0.25;0.25;;;;;;;;5052272;28;8975;-75
2023/11/06 10:37:46;;;;;;;;;1.00;1.00;;;;;;;;5052215;28;8860;-80
2023/11/06 10:40:18;;;;;;;;;1.25;1.00;;;;;;;;5050086;28;8836;-78
2023/11/06 10:42:47;;;;;;;;;0.25;0.00;;;;;;;;5053615;28;8875;-77
2023/11/06 10:45:14;;;;;;;;;1.75;0.00;;;;;;;;5046036;28;8853;-78
2023/11/06 10:47:46;;;;;;;;;0.00;0.00;;;;;;;;5052867;28;8837;-82
2023/11/06 10:50:17;;;;;;;;;0.00;0.00;;;;;;;;5053529;28;9591;-80
2023/11/06 10:52:51;;;;;;;;;1.00;0.00;;;;;;;;5052307;28;8832;-80
2023/11/06 10:55:22;;;;;;;;;1.00;1.00;;;;;;;;5051660;28;8836;-80
2023/11/06 10:57:54;;;;;;;;;0.00;0.00;;;;;;;;5050111;28;8840;-78
2023/11/06 11:00:22;;;;;;;;;0.25;0.25;;;;;;;;5052710;28;8847;-79
2023/11/06 11:02:51;;;;;;;;;0.00;0.00;;;;;;;;5051815;28;8848;-76
2023/11/06 11:05:23;;;;;;;;;0.00;0.00;;;;;;;;5037962;28;8838;-82
2023/11/06 11:07:50;;;;;;;;;4.75;2.00;;;;;;;;5046451;28;8839;-76
2023/11/06 11:10:27;;;;;;;;;2.00;1.00;;;;;;;;5065093;28;8836;-78
2023/11/06 11:12:57;;;;;;;;;0.25;0.25;;;;;;;;5055774;28;8879;-77
2023/11/06 11:15:25;;;;;;;;;0.00;0.00;;;;;;;;5050815;28;9583;-78
2023/11/06 11:17:59;;;;;;;;;0.00;0.00;;;;;;;;5050644;28;8878;-75
2023/11/06 11:20:27;;;;;;;;;0.00;0.00;;;;;;;;5050469;28;8958;-81
2023/11/06 11:23:07;;;;;;;;;2.00;0.00;;;;;;;;5060569;28;8852;-83
2023/11/06 11:26:09;;;;;;;;;1.50;0.25;;;;;;;;5040725;28;8840;-73
2023/11/06 11:29:19;;;;;;;;;;;;;;;;;;;;;
2023/11/06 11:31:49;;;;;;;;;0.00;0.00;;;;;;;;5053160;28;8852;-77
2023/11/06 11:34:29;;;;;;;;;0.75;0.75;;;;;;;;5052043;28;8868;-73
2023/11/06 11:36:56;;;;;;;;;2.50;0.00;;;;;;;;5038643;28;8878;-77
2023/11/06 11:39:23;;;;;;;;;2.00;0.00;;;;;;;;5050388;28;8848;-81
2023/11/06 11:42:23;;;;;;;;;0.00;0.00;;;;;;;;5050932;28;8855;-82
2023/11/06 11:44:57;;;;;;;;;1.25;0.00;;;;;;;;5054377;28;8866;-79
2023/11/06 11:47:25;;;;;;;;;1.00;0.00;;;;;;;;5050502;28;8894;-79
2023/11/06 11:49:55;;;;;;;;;1.00;0.00;;;;;;;;5050679;28;8994;-76
2023/11/06 11:52:44;;;;;;;;;0.00;0.00;;;;;;;;5050828;28;9675;-79
2023/11/06 11:55:38;;;;;;;;;1.00;1.00;;;;;;;;5051543;28;8874;-78
2023/11/06 11:58:09;;;;;;;;;0.00;0.00;;;;;;;;5052971;28;8848;-79
2023/11/06 12:00:37;;;;;;;;;0.00;0.00;;;;;;;;5071602;28;8840;-78
2023/11/06 12:03:08;;;;;;;;;0.00;0.00;;;;;;;;5068179;28;8836;-77
2023/11/06 12:05:37;;;;;;;;;0.00;0.00;;;;;;;;5051815;28;8859;-77
2023/11/06 12:08:18;;;;;;;;;2.00;1.00;;;;;;;;5050703;28;8845;-81
2023/11/06 12:10:47;;;;;;;;;0.00;0.00;;;;;;;;5050907;28;8844;-77
2023/11/06 12:13:16;;;;;;;;;0.00;0.00;;;;;;;;5050773;28;8864;-78
2023/11/06 12:15:45;;;;;;;;;0.00;0.00;;;;;;;;5050928;28;8959;-84
2023/11/06 12:18:15;;;;;;;;;0.00;0.00;;;;;;;;5032109;28;9624;-78
2023/11/06 12:20:43;;;;;;;;;1.00;0.00;;;;;;;;5044588;28;8918;-81
2023/11/06 12:23:13;;;;;;;;;1.50;0.00;;;;;;;;5044103;28;8890;-79
2023/11/06 12:25:41;;;;;;;;;0.00;0.00;;;;;;;;5044695;28;8843;-81
2023/11/06 12:28:10;;;;;;;;;1.75;0.75;;;;;;;;5051633;28;8971;-81
2023/11/06 12:30:40;;;;;;;;;1.50;0.25;;;;;;;;5051581;28;8864;-80
2023/11/06 12:33:12;;;;;;;;;0.25;0.25;;;;;;;;5051261;28;8860;-78
2023/11/06 12:35:41;;;;;;;;;0.00;0.00;;;;;;;;5051516;28;8933;-75
2023/11/06 12:38:10;;;;;;;;;1.75;1.00;;;;;;;;5049847;28;8832;-78
2023/11/06 12:40:43;;;;;;;;;0.00;0.00;;;;;;;;5042868;28;8978;-77
2023/11/06 12:43:16;;;;;;;;;0.00;0.00;;;;;;;;5049397;28;9627;-75
2023/11/06 12:45:46;;;;;;;;;1.75;1.00;;;;;;;;5049425;28;8848;-76
2023/11/06 12:48:26;;;;;;;;;0.00;0.00;;;;;;;;5049451;28;8841;-76
2023/11/06 12:51:06;;;;;;;;;1.00;0.00;;;;;;;;5048543;28;8852;-75
2023/11/06 12:53:36;;;;;;;;;2.00;0.00;;;;;;;;5048876;28;8840;-75
2023/11/06 12:56:06;;;;;;;;;0.00;0.00;;;;;;;;5048538;28;9611;-75
2023/11/06 12:58:35;;;;;;;;;2.00;0.00;;;;;;;;5048689;28;8832;-78
2023/11/06 13:01:18;;;;;;;;;1.50;0.00;;;;;;;;5048619;28;8828;-79
2023/11/06 13:03:53;;;;;;;;;1.00;1.00;;;;;;;;5043813;28;8832;-76
2023/11/06 13:06:20;;;;;;;;;0.25;0.25;;;;;;;;5049412;28;8897;-78
2023/11/06 13:08:49;;;;;;;;;0.00;0.00;;;;;;;;5048306;28;9010;-77
2023/11/06 13:11:19;;;;;;;;;0.25;0.25;;;;;;;;5042752;28;8859;-75
2023/11/06 13:13:54;;;;;;;;;0.75;0.75;;;;;;;;5044886;28;8961;-76
2023/11/06 13:16:22;;;;;;;;;1.00;1.00;;;;;;;;5047522;28;8852;-76
2023/11/06 13:18:53;;;;;;;;;0.00;0.00;;;;;;;;5047956;28;8874;-77
2023/11/06 13:21:25;;;;;;;;;0.75;0.25;;;;;;;;5052267;28;8847;-73
2023/11/06 13:23:54;;;;;;;;;0.00;0.00;;;;;;;;5052135;28;8832;-76
2023/11/06 13:26:21;;;;;;;;;2.00;0.75;;;;;;;;5050065;28;8871;-76
2023/11/06 13:28:51;;;;;;;;;1.00;0.00;;;;;;;;5048858;28;8832;-77
2023/11/06 13:31:20;;;;;;;;;0.75;0.75;;;;;;;;5042550;28;8868;-76
2023/11/06 13:33:49;;;;;;;;;1.00;1.00;;;;;;;;5048196;28;9014;-80
2023/11/06 13:36:17;;;;;;;;;0.00;0.00;;;;;;;;5048395;28;8847;-75
2023/11/06 13:38:47;;;;;;;;;1.00;0.00;;;;;;;;5048237;28;8841;-77
2023/11/06 13:41:19;;;;;;;;;0.00;0.00;;;;;;;;5048515;28;8856;-79
2023/11/06 13:43:47;;;;;;;;;0.00;0.00;;;;;;;;5048914;28;8864;-76
2023/11/06 13:46:16;;;;;;;;;1.50;0.00;;;;;;;;5048093;28;9648;-76
2023/11/06 13:48:47;;;;;;;;;0.50;0.50;;;;;;;;5048346;28;8906;-77
2023/11/06 13:51:17;;;;;;;;;0.00;0.00;;;;;;;;5048629;28;8816;-80
2023/11/06 13:53:47;;;;;;;;;0.00;0.00;;;;;;;;5048848;28;8844;-80
2023/11/06 13:56:18;;;;;;;;;1.00;1.00;;;;;;;;5048635;28;8863;-81
2023/11/06 13:58:48;;;;;;;;;0.00;0.00;;;;;;;;5048684;28;8860;-80
2023/11/06 14:01:19;;;;;;;;;0.00;0.00;;;;;;;;5049275;28;8847;-80
2023/11/06 14:03:50;;;;;;;;;0.75;0.75;;;;;;;;5047754;28;8848;-75
2023/11/06 14:06:19;;;;;;;;;1.00;1.00;;;;;;;;5048429;28;8844;-76
2023/11/06 14:08:55;;;;;;;;;0.75;0.75;;;;;;;;5049307;28;8884;-79
2023/11/06 14:11:24;;;;;;;;;0.00;0.00;;;;;;;;5047678;28;8882;-77
2023/11/06 14:13:54;;;;;;;;;0.75;0.00;;;;;;;;5048256;28;8849;-78
2023/11/06 14:16:22;;;;;;;;;0.25;0.00;;;;;;;;5045074;28;8846;-80
2023/11/06 14:18:50;;;;;;;;;0.00;0.00;;;;;;;;5048510;28;8864;-79
2023/11/06 14:21:19;;;;;;;;;0.00;0.00;;;;;;;;5050251;28;8856;-76
2023/11/06 14:24:19;;;;;;;;;0.00;0.00;;;;;;;;5049926;28;8860;-77
2023/11/06 14:26:46;;;;;;;;;5.25;2.75;;;;;;;;5047877;28;8845;-74
2023/11/06 14:29:15;;;;;;;;;1.50;1.50;;;;;;;;5043395;28;8963;-77
2023/11/06 14:31:42;;;;;;;;;4.00;3.75;;;;;;;;5046478;28;8780;-76
2023/11/06 14:34:10;;;;;;;;;0.50;0.00;;;;;;;;5052494;28;8836;-77
2023/11/06 14:36:38;;;;;;;;;3.75;0.00;;;;;;;;5069352;28;8947;-77
2023/11/06 14:39:08;;;;;;;;;2.25;1.50;;;;;;;;5061166;28;8843;-78
2023/11/06 14:41:35;;;;;;;;;1.00;1.00;;;;;;;;5051453;28;8893;-77
2023/11/06 14:44:04;;;;;;;;;0.00;0.00;;;;;;;;5042460;28;9801;-80
2023/11/06 14:46:31;;;;;;;;;2.00;1.00;;;;;;;;5046937;28;8836;-76
2023/11/06 14:48:59;;;;;;;;;1.50;0.00;;;;;;;;5045726;28;8861;-77
2023/11/06 14:51:26;;;;;;;;;0.00;0.00;;;;;;;;5045892;28;8836;-79
2023/11/06 14:53:55;;;;;;;;;0.00;0.00;;;;;;;;5046967;28;8845;-76
2023/11/06 14:56:23;;;;;;;;;0.00;0.00;;;;;;;;5041903;28;9449;-74
2023/11/06 14:58:50;;;;;;;;;0.00;0.00;;;;;;;;5043788;28;8864;-78
2023/11/06 15:01:17;;;;;;;;;3.75;1.00;;;;;;;;5048022;28;8801;-77
2023/11/06 15:03:46;;;;;;;;;2.50;1.00;;;;;;;;5050190;28;8852;-77
2023/11/06 15:06:14;;;;;;;;;0.00;0.00;;;;;;;;5051863;28;8971;-79
2023/11/06 15:08:46;;;;;;;;;0.00;0.00;;;;;;;;5052801;28;8848;-75
2023/11/06 15:11:17;;;;;;;;;1.25;0.00;;;;;;;;5063019;28;8851;-71
2023/11/06 15:13:45;;;;;;;;;1.75;0.00;;;;;;;;5056098;28;8883;-78